16 minutes ago
METAR EHHW 031255Z AUTO 01002KT 9999 NCD 17/10 Q1014

METAR definition | Embed

METAR Buitengaats / BG-OHVS2 Helipad

Buitengaats / BG-OHVS2 Helipad is a heliport in Gemini Wind Farm, The Netherlands.

This report was made for Buitengaats / BG-OHVS2 Helipad on August 3, 2021 2:55 pm, local time.

Airport observations

The wind is from direction north (010°) with a speed of 2 kt.

Visibility is 6¼ mi or more.

There are nil cloud detected. No ceiling has been observed.

The temperature and wind chill are 63 °F. The dew point is 50 °F, the relative humidity is 64%. The air pressure at sea level is 29.94 inHg (QNH).

Daylight period

Today the sun rises at 5:53 am and sets at 9:30 pm. This applies to Buitengaats / BG-OHVS2 Helipad, the universal daylight period may be different. The difference between the local time and UTC is +2 hour. Daylight saving time is currently in progress.

Historical data

Donate

Will you help us to keep Metar-Taf.com running?
Your contribution helps further development of the site and to pay for the expenses.

No more ads

Are you donating $ 5 or more? Then we'll never show you ads again, as a token of our eternal gratitude!
Log in before you donate

Do you want the flying weather of Buitengaats / BG-OHVS2 Helipad on your website? Read more   Free!